Time;durP1;ratioP1;P1;durP2;ratioP2;P2;SDS_P1;SDS_P2;PMS_P1;PMS_P2;Temp;Humidity;BMP_temperature;BMP_pressure;BME280_temperature;BME280_humidity;BME280_pressure;Samples;Min_cycle;Max_cycle;Signal;HPM_P1;HPM_P2
2023/01/08 00:00:58;;;;;;;11.82;7.60;;;2.60;77.90;;;;;;5095647;28;20185;-63
2023/01/08 00:03:28;;;;;;;11.88;7.63;;;2.60;77.60;;;;;;5096084;28;20196;-63
2023/01/08 00:05:57;;;;;;;10.20;7.30;;;2.60;77.50;;;;;;5095435;28;20188;-63
2023/01/08 00:08:25;;;;;;;10.98;7.35;;;2.50;78.00;;;;;;5095665;28;20193;-63
2023/01/08 00:10:55;;;;;;;11.25;7.80;;;2.50;78.20;;;;;;5095327;28;20567;-63
2023/01/08 00:13:25;;;;;;;10.73;7.45;;;2.50;78.40;;;;;;5095614;28;20189;-63
2023/01/08 00:16:02;;;;;;;14.40;7.97;;;2.50;78.30;;;;;;5095416;28;20185;-63
2023/01/08 00:18:36;;;;;;;10.73;6.75;;;2.50;78.50;;;;;;5095409;28;20289;-63
2023/01/08 00:21:09;;;;;;;8.63;7.25;;;2.50;78.80;;;;;;5095055;28;20588;-62
2023/01/08 00:23:41;;;;;;;12.07;7.63;;;2.50;78.80;;;;;;5095477;28;20238;-63
2023/01/08 00:26:12;;;;;;;9.25;7.88;;;2.50;78.40;;;;;;5095120;28;20196;-63
2023/01/08 00:28:39;;;;;;;11.90;6.90;;;2.50;77.70;;;;;;5095611;28;20218;-63
2023/01/08 00:31:13;;;;;;;9.45;6.00;;;2.60;78.30;;;;;;5095086;28;20694;-62
2023/01/08 00:33:42;;;;;;;9.60;5.95;;;2.60;78.80;;;;;;5095506;28;20717;-63
2023/01/08 00:36:11;;;;;;;8.27;5.75;;;2.70;79.00;;;;;;5094716;28;20532;-63
2023/01/08 00:38:41;;;;;;;9.75;6.15;;;2.70;78.90;;;;;;5094745;28;20534;-65
2023/01/08 00:41:12;;;;;;;11.63;6.60;;;2.70;78.90;;;;;;5095002;28;20193;-64
2023/01/08 00:43:42;;;;;;;9.75;6.07;;;2.70;78.10;;;;;;5094954;28;20666;-63
2023/01/08 00:46:11;;;;;;;9.57;7.00;;;2.70;77.30;;;;;;5095193;28;20200;-64
2023/01/08 00:48:38;;;;;;;7.85;5.85;;;2.70;77.30;;;;;;5094718;28;20717;-63
2023/01/08 00:51:09;;;;;;;7.38;6.15;;;2.70;76.30;;;;;;5094743;28;20282;-63
2023/01/08 00:53:38;;;;;;;9.15;6.25;;;2.60;75.90;;;;;;5094896;28;20600;-63
2023/01/08 00:56:09;;;;;;;8.27;6.45;;;2.50;75.40;;;;;;5094954;28;20185;-63
2023/01/08 00:58:45;;;;;;;9.90;6.85;;;2.40;74.50;;;;;;5094675;28;20213;-62
2023/01/08 01:01:15;;;;;;;9.70;6.53;;;2.30;74.70;;;;;;5094694;28;20772;-62
2023/01/08 01:03:45;;;;;;;14.38;8.13;;;2.20;75.70;;;;;;5093674;28;20217;-62
2023/01/08 01:06:14;;;;;;;11.60;6.20;;;2.20;76.40;;;;;;5094806;28;20540;-63
2023/01/08 01:08:43;;;;;;;8.80;6.15;;;2.20;76.50;;;;;;5093860;28;20689;-63
2023/01/08 01:11:19;;;;;;;11.30;6.15;;;2.20;76.90;;;;;;5094487;28;20270;-63
2023/01/08 01:13:55;;;;;;;10.48;6.38;;;2.30;77.10;;;;;;5094305;28;20212;-63
2023/01/08 01:16:23;;;;;;;10.35;5.72;;;2.20;77.30;;;;;;5094933;28;20188;-63
2023/01/08 01:18:51;;;;;;;9.43;5.10;;;2.20;76.60;;;;;;5093726;28;20221;-63
2023/01/08 01:21:25;;;;;;;11.50;6.63;;;2.10;75.60;;;;;;5094595;28;20663;-62
2023/01/08 01:23:57;;;;;;;10.52;7.22;;;1.90;75.30;;;;;;5093955;28;20193;-63
2023/01/08 01:26:25;;;;;;;10.50;6.22;;;1.80;74.60;;;;;;5094091;28;20189;-64
2023/01/08 01:28:54;;;;;;;10.07;6.10;;;1.70;75.80;;;;;;5094118;28;20524;-63
2023/01/08 01:31:25;;;;;;;10.18;6.10;;;1.60;76.00;;;;;;5093868;28;20216;-63
2023/01/08 01:33:57;;;;;;;8.73;5.25;;;1.50;76.50;;;;;;5093583;28;20189;-63
2023/01/08 01:36:27;;;;;;;9.50;6.00;;;1.50;77.90;;;;;;5094119;28;20216;-63
2023/01/08 01:38:57;;;;;;;9.40;6.35;;;1.50;78.10;;;;;;5093771;28;20185;-63
2023/01/08 01:41:28;;;;;;;8.63;5.70;;;1.50;78.40;;;;;;5093976;28;20247;-63
2023/01/08 01:44:20;;;;;;;10.43;6.60;;;1.60;79.10;;;;;;5093878;28;20230;-63
2023/01/08 01:46:50;;;;;;;8.90;5.45;;;1.60;79.60;;;;;;5093626;28;20224;-64
2023/01/08 01:49:22;;;;;;;10.18;6.20;;;1.60;80.10;;;;;;5093850;28;20180;-63
2023/01/08 01:51:55;;;;;;;6.22;5.60;;;1.60;81.20;;;;;;5093799;28;20231;-69
2023/01/08 01:54:28;;;;;;;9.18;4.80;;;1.60;82.10;;;;;;5073583;28;20300;-63
2023/01/08 01:57:00;;;;;;;7.90;4.85;;;1.60;82.10;;;;;;5073942;28;20197;-64
2023/01/08 01:59:32;;;;;;;6.30;5.25;;;1.70;82.20;;;;;;5073311;28;20225;-63
2023/01/08 02:02:00;;;;;;;9.68;5.05;;;1.70;81.60;;;;;;5073586;28;20225;-64
2023/01/08 02:04:44;;;;;;;8.70;5.00;;;1.70;81.00;;;;;;5073394;28;20190;-63
2023/01/08 02:07:19;;;;;;;6.47;5.85;;;1.70;80.10;;;;;;5079674;28;20651;-63
2023/01/08 02:09:52;;;;;;;8.18;4.65;;;1.70;79.00;;;;;;5093811;28;20193;-63
2023/01/08 02:12:31;;;;;;;7.97;4.95;;;1.70;79.30;;;;;;5093172;28;20208;-64
2023/01/08 02:15:05;;;;;;;7.03;4.35;;;1.70;79.70;;;;;;5093580;28;20196;-63
2023/01/08 02:17:44;;;;;;;5.07;4.43;;;1.70;79.60;;;;;;5092920;28;20512;-63
2023/01/08 02:20:17;;;;;;;5.95;4.25;;;1.70;80.00;;;;;;5093204;28;20745;-63
2023/01/08 02:23:00;;;;;;;6.88;3.72;;;1.70;80.50;;;;;;5092460;28;20189;-63
2023/01/08 02:25:40;;;;;;;10.07;4.38;;;1.60;80.30;;;;;;5093045;28;20181;-63
2023/01/08 02:28:12;;;;;;;7.45;4.78;;;1.60;80.00;;;;;;5092920;28;20584;-63
2023/01/08 02:30:40;;;;;;;5.97;4.20;;;1.60;79.70;;;;;;5092012;28;20217;-63
2023/01/08 02:33:41;;;;;;;8.60;4.50;;;1.50;79.70;;;;;;5093024;28;20718;-63
2023/01/08 02:36:30;;;;;;;5.95;3.97;;;1.50;79.20;;;;;;5092770;28;20716;-63
2023/01/08 02:39:21;;;;;;;9.07;4.00;;;1.50;79.00;;;;;;5092836;28;20200;-64
2023/01/08 02:42:04;;;;;;;5.95;3.90;;;1.50;78.80;;;;;;5092574;28;20196;-63
2023/01/08 02:44:45;;;;;;;6.55;3.92;;;1.50;79.10;;;;;;5092977;28;20185;-65
2023/01/08 02:47:22;;;;;;;7.75;4.03;;;1.50;79.40;;;;;;5092200;28;20647;-63
2023/01/08 02:49:54;;;;;;;6.47;4.00;;;1.60;79.20;;;;;;5092931;28;20223;-63
2023/01/08 02:52:23;;;;;;;7.45;4.30;;;1.60;79.30;;;;;;5092065;28;20221;-63
2023/01/08 02:54:51;;;;;;;5.03;3.55;;;1.50;78.30;;;;;;5092500;28;20670;-63
2023/01/08 02:57:26;;;;;;;7.07;4.15;;;1.40;77.50;;;;;;5092390;28;20231;-63
2023/01/08 02:59:55;;;;;;;5.55;3.45;;;1.30;78.30;;;;;;5092381;28;20207;-63
2023/01/08 03:02:28;;;;;;;7.40;3.88;;;1.30;79.00;;;;;;5092145;28;20190;-66
2023/01/08 03:05:09;;;;;;;6.65;3.65;;;1.20;80.00;;;;;;5091660;28;20612;-64
2023/01/08 03:07:37;;;;;;;5.88;3.22;;;1.20;80.40;;;;;;5092371;28;20658;-64
2023/01/08 03:10:07;;;;;;;6.55;4.07;;;1.20;80.20;;;;;;5092110;28;20230;-63
2023/01/08 03:12:45;;;;;;;5.15;2.75;;;1.30;79.60;;;;;;5092052;28;20308;-64
2023/01/08 03:15:20;;;;;;;7.60;3.38;;;1.30;79.80;;;;;;5092137;28;20254;-64
2023/01/08 03:18:12;;;;;;;5.30;3.03;;;1.30;80.20;;;;;;5092312;28;20311;-64
2023/01/08 03:20:45;;;;;;;12.70;3.80;;;1.40;81.50;;;;;;5091925;28;20187;-64
2023/01/08 03:23:17;;;;;;;5.22;3.28;;;1.40;80.60;;;;;;5091999;28;20192;-64
2023/01/08 03:25:47;;;;;;;4.80;2.80;;;1.40;80.80;;;;;;5091681;28;20279;-63
2023/01/08 03:28:20;;;;;;;9.63;3.58;;;1.50;80.90;;;;;;5091616;28;20268;-63
2023/01/08 03:30:52;;;;;;;7.10;3.83;;;1.50;81.20;;;;;;5092388;28;20193;-63
2023/01/08 03:33:23;;;;;;;7.72;4.55;;;1.50;81.20;;;;;;5091892;28;20246;-64
2023/01/08 03:35:59;;;;;;;9.43;5.03;;;1.50;80.30;;;;;;5092156;28;20193;-64
2023/01/08 03:38:32;;;;;;;6.63;3.42;;;1.60;79.80;;;;;;5091906;28;20185;-64
2023/01/08 03:41:04;;;;;;;14.30;6.20;;;1.60;79.90;;;;;;5092136;28;20193;-64
2023/01/08 03:43:33;;;;;;;10.60;4.95;;;1.50;78.20;;;;;;5091405;28;20234;-63
2023/01/08 03:46:05;;;;;;;8.57;4.10;;;1.40;78.50;;;;;;5092166;28;20239;-64
2023/01/08 03:48:35;;;;;;;10.63;6.55;;;1.30;78.30;;;;;;5091519;28;20631;-63
2023/01/08 03:51:02;;;;;;;6.85;3.22;;;1.20;79.80;;;;;;5091929;28;20193;-64
2023/01/08 03:53:30;;;;;;;7.53;4.18;;;1.20;80.50;;;;;;5091363;28;20177;-64
2023/01/08 03:56:00;;;;;;;3.00;1.95;;;1.20;80.90;;;;;;5091355;28;20265;-65
2023/01/08 03:58:27;;;;;;;5.88;2.63;;;1.20;81.00;;;;;;5092048;28;20197;-64
2023/01/08 04:01:00;;;;;;;5.45;2.88;;;1.20;81.30;;;;;;5091625;28;20185;-65
2023/01/08 04:03:34;;;;;;;6.15;3.00;;;1.30;81.20;;;;;;5071961;28;20189;-63
2023/01/08 04:06:10;;;;;;;8.43;3.00;;;1.30;81.40;;;;;;5072087;28;20194;-67
2023/01/08 04:08:39;;;;;;;4.05;2.92;;;1.40;81.00;;;;;;5092120;28;20271;-64
2023/01/08 04:11:06;;;;;;;4.78;3.08;;;1.40;80.40;;;;;;5091393;28;20197;-67
2023/01/08 04:13:48;;;;;;;4.40;3.03;;;1.40;79.60;;;;;;5092051;28;20212;-64
2023/01/08 04:16:20;;;;;;;4.13;2.97;;;1.40;79.20;;;;;;5091662;28;20286;-64
2023/01/08 04:18:49;;;;;;;6.20;3.40;;;1.40;79.50;;;;;;5091207;28;20228;-63
2023/01/08 04:21:34;;;;;;;4.05;2.60;;;1.40;80.10;;;;;;5091489;28;20284;-64
2023/01/08 04:24:01;;;;;;;5.38;3.42;;;1.40;80.40;;;;;;5092157;28;20708;-63
2023/01/08 04:26:30;;;;;;;5.63;3.75;;;1.50;79.50;;;;;;5091410;28;20662;-64
2023/01/08 04:29:02;;;;;;;5.47;3.47;;;1.50;78.20;;;;;;5091758;28;20189;-64
2023/01/08 04:31:31;;;;;;;5.20;3.63;;;1.40;77.70;;;;;;5091357;28;20217;-64
2023/01/08 04:34:05;;;;;;;5.18;2.72;;;1.40;77.40;;;;;;5091836;28;20280;-64
2023/01/08 04:36:35;;;;;;;4.32;2.42;;;1.30;78.20;;;;;;5091299;28;20193;-63
2023/01/08 04:39:02;;;;;;;5.88;4.10;;;1.20;78.60;;;;;;5093607;28;20414;-64
2023/01/08 04:41:31;;;;;;;5.30;3.30;;;1.20;79.30;;;;;;5094870;28;20308;-63
2023/01/08 04:44:00;;;;;;;10.55;4.03;;;1.10;79.60;;;;;;5095429;28;20572;-64
2023/01/08 04:46:27;;;;;;;5.43;3.45;;;1.10;79.70;;;;;;5094719;28;20286;-64
2023/01/08 04:48:56;;;;;;;6.93;3.78;;;1.10;79.80;;;;;;5095279;28;20246;-64
2023/01/08 04:51:26;;;;;;;4.90;2.85;;;1.20;80.60;;;;;;5094470;28;20209;-63
2023/01/08 04:53:56;;;;;;;4.97;3.00;;;1.30;80.50;;;;;;5094651;28;20237;-64
2023/01/08 04:56:24;;;;;;;6.60;3.67;;;1.30;80.20;;;;;;5095314;28;20185;-64
2023/01/08 04:58:57;;;;;;;6.82;3.80;;;1.40;80.10;;;;;;5094583;28;20185;-64
2023/01/08 05:01:28;;;;;;;5.53;3.50;;;1.40;80.10;;;;;;5094244;28;20176;-63
2023/01/08 05:03:58;;;;;;;4.25;2.47;;;1.40;80.10;;;;;;5094876;28;20177;-64
2023/01/08 05:06:29;;;;;;;8.05;3.35;;;1.50;79.80;;;;;;5094577;28;20200;-63
2023/01/08 05:08:58;;;;;;;7.07;3.33;;;1.50;79.80;;;;;;5094863;28;20538;-64
2023/01/08 05:11:27;;;;;;;7.00;3.30;;;1.50;79.80;;;;;;5094828;28;20643;-64
2023/01/08 05:13:55;;;;;;;4.75;2.40;;;1.50;79.80;;;;;;5094486;28;20221;-64
2023/01/08 05:16:25;;;;;;;3.35;2.28;;;1.50;79.80;;;;;;5094972;28;20268;-63
2023/01/08 05:18:59;;;;;;;4.38;2.35;;;1.60;79.70;;;;;;5094132;28;20627;-65
2023/01/08 05:21:27;;;;;;;3.88;2.22;;;1.60;79.30;;;;;;5094939;28;20215;-64
2023/01/08 05:23:55;;;;;;;4.85;2.80;;;1.60;79.10;;;;;;5094381;28;20271;-64
2023/01/08 05:26:26;;;;;;;5.75;2.90;;;1.50;78.70;;;;;;5094698;28;20196;-64
2023/01/08 05:28:53;;;;;;;3.75;2.10;;;1.50;78.20;;;;;;5094419;28;20196;-65
2023/01/08 05:31:24;;;;;;;4.20;2.80;;;1.50;77.70;;;;;;5094621;28;20192;-64
2023/01/08 05:33:52;;;;;;;4.18;3.00;;;1.40;77.50;;;;;;5094511;28;20647;-64
2023/01/08 05:36:19;;;;;;;5.00;2.70;;;1.30;77.60;;;;;;5093665;28;20181;-64
2023/01/08 05:38:48;;;;;;;5.03;3.10;;;1.30;77.90;;;;;;5094353;28;20296;-64
2023/01/08 05:41:18;;;;;;;5.68;3.70;;;1.40;77.80;;;;;;5094455;28;20189;-64
2023/01/08 05:43:48;;;;;;;3.40;2.08;;;1.40;78.20;;;;;;5093935;28;20192;-64
2023/01/08 05:46:15;;;;;;;5.32;2.47;;;1.40;79.00;;;;;;5094305;28;20275;-63
2023/01/08 05:48:42;;;;;;;6.32;2.95;;;1.30;79.00;;;;;;5093746;28;20250;-63
2023/01/08 05:51:10;;;;;;;7.43;3.30;;;1.30;78.20;;;;;;5094035;28;20282;-63
2023/01/08 05:53:39;;;;;;;5.88;3.65;;;1.30;77.90;;;;;;5093448;28;20213;-63
2023/01/08 05:56:10;;;;;;;7.03;4.53;;;1.20;77.70;;;;;;5093973;28;20189;-63
2023/01/08 05:58:47;;;;;;;8.90;4.00;;;1.30;77.80;;;;;;5093686;28;20185;-63
2023/01/08 06:01:18;;;;;;;6.70;3.50;;;1.30;77.30;;;;;;5094074;28;20222;-63
2023/01/08 06:03:45;;;;;;;7.55;4.65;;;1.30;78.10;;;;;;5093403;28;20217;-63
2023/01/08 06:06:13;;;;;;;7.43;3.97;;;1.20;77.90;;;;;;5093819;28;20239;-64
2023/01/08 06:08:41;;;;;;;6.88;3.55;;;1.20;77.20;;;;;;5093092;28;20678;-64
2023/01/08 06:11:13;;;;;;;7.45;4.72;;;1.10;77.30;;;;;;5093470;28;20220;-64
2023/01/08 06:13:42;;;;;;;10.90;6.20;;;1.20;77.60;;;;;;5093018;28;20224;-64
2023/01/08 06:16:16;;;;;;;9.02;5.05;;;1.20;78.00;;;;;;5093492;28;20200;-63
2023/01/08 06:18:45;;;;;;;7.45;4.25;;;1.20;77.90;;;;;;5092759;28;20217;-65
2023/01/08 06:21:17;;;;;;;8.48;5.03;;;1.30;78.50;;;;;;5093037;28;20193;-64
2023/01/08 06:23:47;;;;;;;11.73;4.00;;;1.30;78.50;;;;;;5093341;28;20284;-64
2023/01/08 06:26:18;;;;;;;6.95;3.38;;;1.30;78.40;;;;;;5093152;28;20192;-63
2023/01/08 06:28:50;;;;;;;8.35;4.15;;;1.30;78.90;;;;;;5093516;28;20333;-64
2023/01/08 06:31:20;;;;;;;7.22;4.50;;;1.30;79.10;;;;;;5092805;28;20189;-65
2023/01/08 06:33:50;;;;;;;6.88;4.40;;;1.30;78.90;;;;;;5093576;28;20228;-63
2023/01/08 06:36:17;;;;;;;6.32;3.33;;;1.40;79.30;;;;;;5092506;28;20268;-64
2023/01/08 06:38:47;;;;;;;7.55;4.28;;;1.40;79.70;;;;;;5092919;28;20367;-64
2023/01/08 06:41:17;;;;;;;7.30;3.88;;;1.40;80.10;;;;;;5093015;28;20246;-63
2023/01/08 06:43:47;;;;;;;5.38;3.78;;;1.50;79.90;;;;;;5093203;28;20197;-63
2023/01/08 06:46:20;;;;;;;6.85;4.57;;;1.50;79.70;;;;;;5092539;28;20196;-64
2023/01/08 06:48:49;;;;;;;8.73;4.60;;;1.50;79.20;;;;;;5093033;28;20279;-64
2023/01/08 06:51:21;;;;;;;17.42;6.57;;;1.50;78.80;;;;;;5092717;28;20246;-63
2023/01/08 06:53:53;;;;;;;9.23;4.43;;;1.50;78.30;;;;;;5092866;28;20216;-64
2023/01/08 06:56:24;;;;;;;4.70;3.97;;;1.50;78.10;;;;;;5092442;28;20655;-63
2023/01/08 06:58:55;;;;;;;6.15;3.03;;;1.50;78.40;;;;;;5093157;28;20191;-63
2023/01/08 07:01:27;;;;;;;9.02;5.97;;;1.50;78.60;;;;;;5091979;28;20189;-63
2023/01/08 07:03:56;;;;;;;7.80;4.75;;;1.40;78.40;;;;;;5092770;28;20196;-64
2023/01/08 07:06:27;;;;;;;7.57;4.68;;;1.40;77.50;;;;;;5092299;28;20220;-64
2023/01/08 07:08:56;;;;;;;6.88;4.63;;;1.30;77.40;;;;;;5092676;28;20227;-63
2023/01/08 07:11:36;;;;;;;6.97;4.43;;;1.20;77.80;;;;;;5092525;28;20606;-64
2023/01/08 07:14:05;;;;;;;9.63;5.10;;;1.20;78.60;;;;;;5092739;28;20311;-64
2023/01/08 07:16:35;;;;;;;8.02;4.15;;;1.30;79.20;;;;;;5092409;28;20189;-64
2023/01/08 07:19:02;;;;;;;7.32;4.88;;;1.40;78.90;;;;;;5092025;28;20216;-63
2023/01/08 07:21:32;;;;;;;8.82;5.25;;;1.40;79.30;;;;;;5092456;28;20651;-64
2023/01/08 07:24:00;;;;;;;14.35;5.95;;;1.50;80.00;;;;;;5092095;28;20224;-64
2023/01/08 07:26:27;;;;;;;8.85;5.70;;;1.60;81.30;;;;;;5091708;28;20182;-64
2023/01/08 07:28:56;;;;;;;14.43;8.85;;;1.70;80.60;;;;;;5092652;28;20185;-64
2023/01/08 07:31:23;;;;;;;10.73;6.28;;;1.80;80.10;;;;;;5092462;28;20605;-63
2023/01/08 07:33:52;;;;;;;8.65;5.57;;;1.90;80.00;;;;;;5092286;28;20680;-63
2023/01/08 07:36:21;;;;;;;8.93;5.15;;;1.90;79.60;;;;;;5091847;28;20185;-63
2023/01/08 07:38:49;;;;;;;7.47;5.05;;;1.90;79.40;;;;;;5091612;28;20616;-63
2023/01/08 07:41:16;;;;;;;11.43;8.68;;;1.80;79.70;;;;;;5091974;28;20185;-65
2023/01/08 07:43:49;;;;;;;14.65;8.93;;;1.90;79.50;;;;;;5092273;28;20193;-65
2023/01/08 07:46:18;;;;;;;15.88;8.90;;;1.80;79.60;;;;;;5087883;28;20197;-64
2023/01/08 07:48:48;;;;;;;8.90;5.63;;;1.80;80.00;;;;;;5091052;28;20193;-64
2023/01/08 07:51:16;;;;;;;6.95;4.35;;;1.70;80.20;;;;;;5089721;28;20185;-63
2023/01/08 07:53:44;;;;;;;8.32;4.50;;;1.80;80.60;;;;;;5090227;28;20227;-64
2023/01/08 07:56:12;;;;;;;6.43;4.43;;;1.80;80.70;;;;;;5090379;28;20189;-63
2023/01/08 07:58:39;;;;;;;7.50;6.00;;;1.80;81.50;;;;;;5090762;28;20200;-64
2023/01/08 08:01:13;;;;;;;10.40;5.00;;;1.80;82.40;;;;;;5090259;28;20185;-65
2023/01/08 08:03:42;;;;;;;9.38;4.97;;;1.90;83.10;;;;;;5087449;28;20193;-64
2023/01/08 08:06:10;;;;;;;5.55;4.45;;;2.00;83.20;;;;;;5089986;28;20551;-64
2023/01/08 08:08:38;;;;;;;6.35;3.30;;;2.20;83.40;;;;;;5090058;28;20195;-65
2023/01/08 08:11:06;;;;;;;4.32;2.50;;;2.30;82.70;;;;;;5085966;28;20262;-63
2023/01/08 08:13:35;;;;;;;3.25;2.40;;;2.40;82.50;;;;;;5093674;28;20277;-64
2023/01/08 08:16:04;;;;;;;5.07;3.05;;;2.50;82.60;;;;;;5093934;28;20631;-64
2023/01/08 08:18:34;;;;;;;6.05;3.47;;;2.50;82.80;;;;;;5093406;28;20220;-64
2023/01/08 08:21:03;;;;;;;6.85;4.28;;;2.70;82.80;;;;;;5094156;28;20630;-63
2023/01/08 08:23:32;;;;;;;8.27;4.80;;;2.90;82.10;;;;;;5092078;28;20192;-64
2023/01/08 08:26:04;;;;;;;10.05;6.65;;;3.00;81.90;;;;;;5092885;28;20598;-65
2023/01/08 08:28:31;;;;;;;14.50;10.50;;;3.10;81.60;;;;;;5093740;28;20197;-64
2023/01/08 08:31:01;;;;;;;12.15;7.47;;;3.30;81.80;;;;;;5093213;28;20215;-64
2023/01/08 08:33:28;;;;;;;14.18;8.73;;;3.40;81.10;;;;;;5093165;28;20220;-67
2023/01/08 08:35:57;;;;;;;16.35;9.18;;;3.60;81.00;;;;;;5090606;28;20213;-65
2023/01/08 08:38:27;;;;;;;14.95;8.68;;;3.70;80.40;;;;;;5090876;28;20201;-64
2023/01/08 08:40:56;;;;;;;13.23;8.80;;;3.80;79.20;;;;;;5093101;28;20189;-66
2023/01/08 08:43:24;;;;;;;14.05;9.93;;;4.00;79.40;;;;;;5090448;28;20193;-64
2023/01/08 08:45:54;;;;;;;13.13;8.55;;;4.20;79.30;;;;;;5093112;28;20190;-65
2023/01/08 08:48:28;;;;;;;11.15;7.93;;;4.40;79.20;;;;;;5092781;28;20647;-67
2023/01/08 08:50:57;;;;;;;9.68;7.00;;;4.60;78.20;;;;;;5089064;28;20198;-64
2023/01/08 08:53:26;;;;;;;6.30;5.68;;;4.80;78.40;;;;;;5093173;28;20221;-64
2023/01/08 08:56:11;;;;;;;10.30;5.45;;;5.20;78.00;;;;;;5092183;28;20632;-64
2023/01/08 08:58:40;;;;;;;10.55;5.97;;;5.70;77.50;;;;;;5090538;28;20193;-64
2023/01/08 09:01:09;;;;;;;9.38;6.22;;;6.20;75.40;;;;;;5092512;28;20196;-64
2023/01/08 09:03:37;;;;;;;14.95;8.90;;;6.50;71.80;;;;;;5088946;28;20205;-65
2023/01/08 09:06:04;;;;;;;14.73;9.88;;;6.80;72.90;;;;;;5092675;28;20187;-65
2023/01/08 09:08:33;;;;;;;9.60;6.47;;;7.30;73.20;;;;;;5093128;28;20190;-65
2023/01/08 09:11:02;;;;;;;12.80;6.93;;;7.60;69.50;;;;;;5091970;28;20278;-66
2023/01/08 09:13:29;;;;;;;11.48;7.40;;;7.90;68.60;;;;;;5092096;28;20294;-64
2023/01/08 09:15:58;;;;;;;10.60;7.25;;;8.00;66.70;;;;;;5092512;28;20183;-65
2023/01/08 09:18:29;;;;;;;15.95;7.47;;;8.00;66.00;;;;;;5092656;28;20664;-65
2023/01/08 09:20:56;;;;;;;9.93;6.65;;;8.10;66.50;;;;;;5091536;28;20658;-65
2023/01/08 09:23:23;;;;;;;10.02;6.70;;;8.10;66.10;;;;;;5093374;28;20558;-65
2023/01/08 09:25:59;;;;;;;9.45;6.03;;;8.10;65.90;;;;;;5093330;28;20295;-64
2023/01/08 09:28:26;;;;;;;9.02;6.47;;;8.20;65.10;;;;;;5089856;28;20194;-64
2023/01/08 09:30:53;;;;;;;10.05;7.15;;;8.40;65.40;;;;;;5093755;28;20216;-66
2023/01/08 09:33:20;;;;;;;9.98;6.10;;;8.50;65.60;;;;;;5093693;28;20220;-65
2023/01/08 09:35:48;;;;;;;10.18;5.55;;;8.50;64.40;;;;;;5092565;28;20228;-65
2023/01/08 09:38:15;;;;;;;8.80;6.45;;;8.50;64.10;;;;;;5093421;28;20196;-64
2023/01/08 09:40:47;;;;;;;7.20;5.28;;;8.60;64.40;;;;;;5093310;28;20508;-65
2023/01/08 09:43:19;;;;;;;9.07;6.05;;;8.70;64.00;;;;;;5093077;28;20203;-66
2023/01/08 09:45:51;;;;;;;19.52;13.05;;;8.70;62.40;;;;;;5089336;28;20192;-65
2023/01/08 09:48:21;;;;;;;17.75;10.18;;;8.90;63.20;;;;;;5092986;28;20540;-64
2023/01/08 09:50:49;;;;;;;11.82;8.13;;;9.10;63.40;;;;;;5091560;28;20546;-65
2023/01/08 09:53:17;;;;;;;18.50;11.10;;;9.40;62.70;;;;;;5092912;28;20224;-64
2023/01/08 09:55:55;;;;;;;20.30;14.27;;;9.80;63.40;;;;;;5093140;28;20208;-65
2023/01/08 09:58:29;;;;;;;21.95;14.73;;;10.20;61.30;;;;;;5092667;28;20232;-66
2023/01/08 10:00:57;;;;;;;26.13;16.13;;;10.40;59.30;;;;;;5092771;28;20196;-66
2023/01/08 10:03:30;;;;;;;24.15;16.40;;;10.60;59.40;;;;;;5093003;28;20232;-64
2023/01/08 10:05:57;;;;;;;21.10;13.95;;;10.70;57.80;;;;;;5088601;28;20239;-66
2023/01/08 10:08:24;;;;;;;29.27;19.48;;;10.90;58.00;;;;;;5092337;28;20241;-65
2023/01/08 10:10:52;;;;;;;17.17;11.65;;;10.90;55.60;;;;;;5092813;28;20219;-66
2023/01/08 10:13:19;;;;;;;20.48;14.68;;;10.80;54.80;;;;;;5092362;28;20209;-65
2023/01/08 10:15:52;;;;;;;16.80;11.73;;;10.80;56.40;;;;;;5092628;28;20232;-65
2023/01/08 10:18:23;;;;;;;21.80;14.85;;;11.30;58.80;;;;;;5092439;28;20248;-65
2023/01/08 10:20:50;;;;;;;19.38;13.77;;;12.00;59.30;;;;;;5092277;28;20262;-65
2023/01/08 10:23:20;;;;;;;25.20;16.92;;;13.10;58.40;;;;;;5092489;28;20228;-64
2023/01/08 10:25:50;;;;;;;14.05;7.50;;;14.20;51.80;;;;;;5092493;28;20197;-65
2023/01/08 10:28:20;;;;;;;23.50;17.10;;;14.70;48.50;;;;;;5092409;28;20189;-66
2023/01/08 10:30:47;;;;;;;30.90;21.60;;;14.70;46.40;;;;;;5088507;28;20500;-65
2023/01/08 10:33:23;;;;;;;20.10;12.90;;;14.40;46.60;;;;;;5091809;28;20525;-65
2023/01/08 10:35:57;;;;;;;20.23;12.83;;;13.90;46.10;;;;;;5091132;28;20483;-66
2023/01/08 10:38:41;;;;;;;10.80;7.33;;;13.60;47.60;;;;;;5092051;28;20503;-66
2023/01/08 10:41:14;;;;;;;9.73;6.40;;;13.30;45.80;;;;;;5086934;28;20464;-70
2023/01/08 10:43:52;;;;;;;9.00;5.83;;;12.80;46.90;;;;;;5088776;28;20427;-65
2023/01/08 10:46:22;;;;;;;8.30;5.33;;;12.40;47.80;;;;;;5091248;28;20937;-64
2023/01/08 10:48:54;;;;;;;7.77;6.07;;;12.10;47.90;;;;;;5091546;28;20522;-64
2023/01/08 10:51:23;;;;;;;13.23;8.53;;;11.70;48.60;;;;;;5091493;28;20435;-67
2023/01/08 10:53:51;;;;;;;17.25;7.03;;;11.50;49.40;;;;;;5087013;28;20479;-69
2023/01/08 10:56:21;;;;;;;15.27;7.20;;;11.30;49.80;;;;;;5090782;28;20205;-65
2023/01/08 10:58:51;;;;;;;12.82;6.68;;;11.10;50.50;;;;;;5094690;28;20669;-64
2023/01/08 11:01:23;;;;;;;12.63;6.50;;;10.90;51.60;;;;;;5090245;28;20196;-65
2023/01/08 11:03:57;;;;;;;10.10;6.72;;;10.80;52.30;;;;;;5091091;28;20229;-65
2023/01/08 11:06:27;;;;;;;9.50;6.85;;;10.70;53.10;;;;;;5091112;28;20245;-66
2023/01/08 11:08:56;;;;;;;9.55;6.53;;;10.60;54.00;;;;;;5091106;28;20185;-67
2023/01/08 11:11:33;;;;;;;15.18;9.40;;;10.50;54.30;;;;;;5091747;28;20243;-65
2023/01/08 11:14:05;;;;;;;18.63;11.63;;;10.40;55.20;;;;;;5090586;28;20212;-65
2023/01/08 11:16:35;;;;;;;13.65;9.00;;;10.30;54.80;;;;;;5090851;28;20193;-65
2023/01/08 11:19:04;;;;;;;14.43;9.20;;;10.20;56.10;;;;;;5090369;28;20208;-67
2023/01/08 11:21:32;;;;;;;13.52;8.00;;;10.20;56.40;;;;;;5087874;28;20364;-65
2023/01/08 11:24:15;;;;;;;13.27;7.85;;;10.20;57.30;;;;;;5092802;28;20229;-65
2023/01/08 11:26:46;;;;;;;12.40;8.02;;;10.20;59.00;;;;;;5090069;28;20280;-64
2023/01/08 11:29:15;;;;;;;13.93;8.15;;;10.20;59.90;;;;;;5091512;28;20284;-65
2023/01/08 11:31:50;;;;;;;16.35;10.75;;;10.10;60.10;;;;;;5090602;28;20185;-64
2023/01/08 11:34:24;;;;;;;14.35;9.27;;;10.10;59.90;;;;;;5090051;28;20224;-65
2023/01/08 11:36:59;;;;;;;12.75;8.10;;;10.10;60.80;;;;;;5094793;28;20584;-65
2023/01/08 11:39:26;;;;;;;6.93;5.32;;;10.10;61.50;;;;;;5088398;28;20393;-65
2023/01/08 11:42:16;;;;;;;5.93;4.25;;;10.20;61.20;;;;;;5093830;28;21547;-65
2023/01/08 11:44:55;;;;;;;4.85;3.10;;;10.10;60.70;;;;;;5089597;28;20185;-65
2023/01/08 11:47:35;;;;;;;6.65;3.22;;;10.00;58.80;;;;;;5092410;28;20199;-65
2023/01/08 11:50:13;;;;;;;6.18;3.10;;;9.90;58.70;;;;;;5094467;28;20684;-65
2023/01/08 11:52:55;;;;;;;10.82;5.75;;;9.90;59.00;;;;;;5097088;28;20224;-65
2023/01/08 11:55:35;;;;;;;8.50;5.38;;;9.80;58.50;;;;;;5095668;27;20212;-66
2023/01/08 11:58:29;;;;;;;12.63;7.45;;;9.70;58.80;;;;;;5094796;28;20236;-65
2023/01/08 12:01:13;;;;;;;10.48;6.93;;;9.60;59.50;;;;;;5093949;28;20197;-65
2023/01/08 12:03:44;;;;;;;12.10;8.43;;;9.50;59.60;;;;;;5091458;28;20238;-67
2023/01/08 12:06:26;;;;;;;13.20;7.75;;;9.50;59.30;;;;;;5095059;28;20233;-64
2023/01/08 12:09:07;;;;;;;7.45;5.03;;;9.40;59.60;;;;;;5090310;28;20193;-67
2023/01/08 12:11:45;;;;;;;8.63;4.82;;;9.40;60.00;;;;;;5093360;28;20216;-66
2023/01/08 12:14:31;;;;;;;8.23;4.35;;;9.40;60.70;;;;;;5091587;28;20256;-64
2023/01/08 12:17:16;;;;;;;4.43;2.90;;;9.40;61.50;;;;;;5090811;28;20246;-65
2023/01/08 12:19:59;;;;;;;6.18;3.63;;;9.40;61.10;;;;;;5093893;28;20270;-64
2023/01/08 12:22:38;;;;;;;5.28;3.83;;;9.30;61.30;;;;;;5092730;28;20229;-66
2023/01/08 12:25:26;;;;;;;7.13;4.22;;;9.30;61.00;;;;;;5090375;28;20666;-65
2023/01/08 12:28:02;;;;;;;7.20;4.25;;;9.30;61.60;;;;;;5089564;28;20288;-65
2023/01/08 12:30:38;;;;;;;6.80;4.60;;;9.40;61.90;;;;;;5093755;28;20246;-66
2023/01/08 12:33:11;;;;;;;7.22;3.20;;;9.40;59.40;;;;;;5089955;28;20188;-69
2023/01/08 12:35:41;;;;;;;4.85;3.10;;;9.30;59.60;;;;;;5093015;28;20299;-65
2023/01/08 12:38:15;;;;;;;3.10;2.63;;;9.40;58.30;;;;;;5088258;28;20203;-66
2023/01/08 12:40:49;;;;;;;4.18;2.28;;;9.40;58.70;;;;;;5091972;28;20200;-65
2023/01/08 12:43:28;;;;;;;3.00;1.80;;;9.30;59.30;;;;;;5093383;28;20757;-66
2023/01/08 12:46:03;;;;;;;3.50;2.00;;;9.20;59.00;;;;;;5091330;28;20231;-64
2023/01/08 12:48:36;;;;;;;4.32;2.40;;;9.20;59.30;;;;;;5093647;28;20219;-67
2023/01/08 12:51:08;;;;;;;5.13;2.25;;;9.10;59.70;;;;;;5093603;28;20193;-65
2023/01/08 12:53:49;;;;;;;7.00;4.00;;;9.10;58.10;;;;;;5093012;28;20643;-65
2023/01/08 12:56:20;;;;;;;5.18;3.00;;;9.10;58.10;;;;;;5090427;28;20193;-64
2023/01/08 12:59:22;;;;;;;4.78;3.20;;;9.10;57.30;;;;;;5092096;28;20495;-64
2023/01/08 13:02:03;;;;;;;5.55;3.83;;;9.00;57.50;;;;;;5091735;28;20199;-65
2023/01/08 13:04:42;;;;;;;7.65;4.97;;;9.10;57.50;;;;;;5092790;28;20186;-65
2023/01/08 13:07:18;;;;;;;5.97;3.35;;;9.00;57.70;;;;;;5089124;28;20193;-64
2023/01/08 13:09:57;;;;;;;4.57;2.30;;;9.00;57.80;;;;;;5090881;28;20192;-69
2023/01/08 13:12:34;;;;;;;3.80;2.35;;;9.00;57.90;;;;;;5090470;28;20196;-66
2023/01/08 13:15:02;;;;;;;5.10;2.13;;;9.00;57.20;;;;;;5091748;28;20220;-66